createdAt,value
2019-02-15T00:00:54.485Z,27.70
2019-02-15T00:15:51.547Z,25.48
2019-02-15T00:30:51.519Z,24.12
2019-02-15T00:45:59.436Z,29.10
2019-02-15T01:00:57.284Z,28.12
2019-02-15T01:15:53.862Z,28.40
2019-02-15T01:30:55.152Z,22.48
2019-02-15T01:45:55.820Z,23.85
2019-02-15T02:00:50.967Z,23.92
2019-02-15T02:15:50.764Z,21.60
2019-02-15T02:30:52.365Z,24.12
2019-02-15T02:45:51.276Z,21.27
2019-02-15T03:00:51.207Z,20.97
2019-02-15T03:15:51.067Z,18.17
2019-02-15T03:30:50.703Z,16.48
2019-02-15T03:45:52.792Z,18.07
2019-02-15T04:00:52.636Z,17.17
2019-02-15T04:15:51.669Z,16.12
2019-02-15T04:30:53.595Z,16.48
2019-02-15T04:45:51.030Z,13.40
2019-02-15T05:00:51.548Z,16.97
2019-02-15T05:15:53.441Z,17.12
2019-02-15T05:30:50.846Z,22.50
2019-02-15T05:45:50.697Z,19.42
2019-02-15T06:00:57.286Z,21.10
2019-02-15T06:15:50.928Z,20.20
2019-02-15T06:30:51.056Z,17.75
2019-02-15T06:45:50.962Z,16.97
2019-02-15T07:15:50.501Z,13.18
2019-02-15T07:30:50.405Z,15.88
2019-02-15T07:45:51.709Z,4.97
2019-02-15T08:00:50.830Z,6.25
2019-02-15T08:15:52.196Z,5.45
2019-02-15T08:30:52.684Z,5.05
2019-02-15T08:45:49.488Z,5.35
2019-02-15T09:00:52.810Z,2.55
2019-02-15T09:15:50.813Z,4.05
2019-02-15T09:30:52.644Z,4.12
2019-02-15T09:45:50.761Z,3.87
2019-02-15T10:00:50.741Z,7.20
2019-02-15T10:15:52.203Z,3.50
2019-02-15T10:30:53.408Z,3.37
2019-02-15T10:45:51.411Z,4.97
2019-02-15T11:00:50.783Z,3.60
2019-02-15T11:15:50.789Z,4.45
2019-02-15T11:30:50.656Z,6.35
2019-02-15T11:45:50.555Z,5.33
2019-02-15T12:00:51.050Z,5.25
2019-02-15T12:15:51.340Z,4.20
2019-02-15T12:30:53.320Z,6.47
2019-02-15T12:45:51.247Z,5.35
2019-02-15T13:00:50.995Z,7.00
2019-02-15T13:15:51.160Z,4.03
2019-02-15T13:30:50.539Z,7.15
2019-02-15T13:45:50.936Z,4.37
2019-02-15T14:00:50.941Z,4.90
2019-02-15T14:15:51.295Z,4.72
2019-02-15T14:30:51.083Z,4.97
2019-02-15T14:45:51.027Z,6.58
2019-02-15T15:00:57.320Z,9.45
2019-02-15T15:15:51.528Z,10.23
2019-02-15T15:30:51.884Z,11.20
2019-02-15T15:45:51.345Z,8.50
2019-02-15T16:00:52.221Z,4.95
2019-02-15T16:15:50.854Z,5.53
2019-02-15T16:30:53.900Z,7.85
2019-02-15T16:45:51.800Z,9.30
2019-02-15T17:00:51.468Z,8.50
2019-02-15T17:15:51.232Z,8.25
2019-02-15T17:30:51.249Z,10.48
2019-02-15T17:45:53.342Z,14.75
2019-02-15T18:00:57.225Z,12.68
2019-02-15T18:15:51.147Z,12.80
2019-02-15T18:30:51.497Z,11.73
2019-02-15T19:00:50.953Z,18.45
2019-02-15T19:15:50.609Z,24.75
2019-02-15T19:30:50.489Z,15.15
2019-02-15T19:45:53.559Z,18.12
2019-02-15T20:00:51.068Z,17.60
2019-02-15T20:15:51.008Z,14.73
2019-02-15T20:30:55.971Z,16.67
2019-02-15T20:45:50.890Z,9.60
2019-02-15T21:15:50.901Z,11.38
2019-02-15T21:30:53.099Z,11.08
2019-02-15T21:45:51.557Z,10.65
2019-02-15T22:00:53.515Z,10.08
2019-02-15T22:15:51.401Z,10.25
2019-02-15T22:30:51.429Z,10.32
2019-02-15T22:45:50.765Z,8.58
2019-02-15T23:15:51.647Z,13.78
2019-02-15T23:30:51.472Z,10.85
2019-02-15T23:45:50.894Z,10.68
